sensor_id;sensor_type;location;lat;lon;timestamp;P1;durP1;ratioP1;P2;durP2;ratioP2
34673;SDS011;20879;55.668;37.858;2023-08-06T00:02:05;32.40;;;16.80;;
34673;SDS011;20879;55.668;37.858;2023-08-06T00:04:38;26.63;;;15.68;;
34673;SDS011;20879;55.668;37.858;2023-08-06T00:07:08;32.22;;;17.00;;
34673;SDS011;20879;55.668;37.858;2023-08-06T00:09:38;29.45;;;16.45;;
34673;SDS011;20879;55.668;37.858;2023-08-06T00:12:08;25.25;;;16.40;;
34673;SDS011;20879;55.668;37.858;2023-08-06T00:14:37;27.10;;;15.50;;
34673;SDS011;20879;55.668;37.858;2023-08-06T00:17:10;29.50;;;17.27;;
34673;SDS011;20879;55.668;37.858;2023-08-06T00:19:46;30.33;;;17.80;;
34673;SDS011;20879;55.668;37.858;2023-08-06T00:22:26;25.50;;;18.50;;
34673;SDS011;20879;55.668;37.858;2023-08-06T00:30:18;27.42;;;16.48;;
34673;SDS011;20879;55.668;37.858;2023-08-06T00:32:52;28.88;;;17.55;;
34673;SDS011;20879;55.668;37.858;2023-08-06T00:35:26;25.27;;;17.17;;
34673;SDS011;20879;55.668;37.858;2023-08-06T00:38:02;29.52;;;18.17;;
34673;SDS011;20879;55.668;37.858;2023-08-06T00:40:34;26.42;;;18.15;;
34673;SDS011;20879;55.668;37.858;2023-08-06T00:43:11;23.70;;;17.10;;
34673;SDS011;20879;55.668;37.858;2023-08-06T00:45:47;25.05;;;16.55;;
34673;SDS011;20879;55.668;37.858;2023-08-06T00:48:17;27.00;;;16.08;;
34673;SDS011;20879;55.668;37.858;2023-08-06T00:50:49;32.90;;;16.13;;
34673;SDS011;20879;55.668;37.858;2023-08-06T00:53:24;24.15;;;15.32;;
34673;SDS011;20879;55.668;37.858;2023-08-06T00:55:55;22.73;;;15.13;;
34673;SDS011;20879;55.668;37.858;2023-08-06T00:58:25;29.48;;;16.80;;
34673;SDS011;20879;55.668;37.858;2023-08-06T01:00:55;21.75;;;15.63;;
34673;SDS011;20879;55.668;37.858;2023-08-06T01:03:27;21.30;;;15.20;;
34673;SDS011;20879;55.668;37.858;2023-08-06T01:06:00;23.87;;;15.30;;
34673;SDS011;20879;55.668;37.858;2023-08-06T01:08:35;24.67;;;15.38;;
34673;SDS011;20879;55.668;37.858;2023-08-06T01:11:25;24.98;;;14.55;;
34673;SDS011;20879;55.668;37.858;2023-08-06T01:14:02;21.00;;;13.88;;
34673;SDS011;20879;55.668;37.858;2023-08-06T01:16:37;21.38;;;13.43;;
34673;SDS011;20879;55.668;37.858;2023-08-06T01:19:15;22.50;;;13.00;;
34673;SDS011;20879;55.668;37.858;2023-08-06T01:21:47;23.45;;;13.52;;
34673;SDS011;20879;55.668;37.858;2023-08-06T01:24:21;22.25;;;12.73;;
34673;SDS011;20879;55.668;37.858;2023-08-06T01:26:54;25.00;;;13.25;;
34673;SDS011;20879;55.668;37.858;2023-08-06T01:29:34;23.70;;;14.38;;
34673;SDS011;20879;55.668;37.858;2023-08-06T01:32:08;23.90;;;14.63;;
34673;SDS011;20879;55.668;37.858;2023-08-06T01:34:41;23.20;;;14.73;;
34673;SDS011;20879;55.668;37.858;2023-08-06T01:37:15;25.90;;;15.45;;
34673;SDS011;20879;55.668;37.858;2023-08-06T01:39:46;21.58;;;15.10;;
34673;SDS011;20879;55.668;37.858;2023-08-06T01:42:17;25.55;;;14.73;;
34673;SDS011;20879;55.668;37.858;2023-08-06T01:44:47;23.88;;;15.68;;
34673;SDS011;20879;55.668;37.858;2023-08-06T01:47:16;21.35;;;14.38;;
34673;SDS011;20879;55.668;37.858;2023-08-06T01:49:47;21.48;;;14.32;;
34673;SDS011;20879;55.668;37.858;2023-08-06T01:52:26;22.23;;;13.88;;
34673;SDS011;20879;55.668;37.858;2023-08-06T01:54:57;22.73;;;13.80;;
34673;SDS011;20879;55.668;37.858;2023-08-06T01:57:30;24.80;;;14.68;;
34673;SDS011;20879;55.668;37.858;2023-08-06T02:00:05;27.38;;;14.20;;
34673;SDS011;20879;55.668;37.858;2023-08-06T02:02:42;26.67;;;14.73;;
34673;SDS011;20879;55.668;37.858;2023-08-06T02:05:17;24.80;;;14.48;;
34673;SDS011;20879;55.668;37.858;2023-08-06T02:08:01;22.13;;;13.13;;
34673;SDS011;20879;55.668;37.858;2023-08-06T02:10:31;22.98;;;15.20;;
34673;SDS011;20879;55.668;37.858;2023-08-06T02:13:03;24.20;;;13.73;;
34673;SDS011;20879;55.668;37.858;2023-08-06T02:15:35;23.50;;;15.35;;
34673;SDS011;20879;55.668;37.858;2023-08-06T02:18:12;24.33;;;14.63;;
34673;SDS011;20879;55.668;37.858;2023-08-06T02:20:41;21.02;;;14.70;;
34673;SDS011;20879;55.668;37.858;2023-08-06T02:23:13;25.77;;;14.27;;
34673;SDS011;20879;55.668;37.858;2023-08-06T02:25:48;26.83;;;15.10;;
34673;SDS011;20879;55.668;37.858;2023-08-06T02:28:25;24.02;;;14.60;;
34673;SDS011;20879;55.668;37.858;2023-08-06T02:30:57;21.45;;;14.02;;
34673;SDS011;20879;55.668;37.858;2023-08-06T02:36:00;25.48;;;13.13;;
34673;SDS011;20879;55.668;37.858;2023-08-06T02:38:32;25.33;;;14.38;;
34673;SDS011;20879;55.668;37.858;2023-08-06T02:41:02;22.65;;;14.50;;
34673;SDS011;20879;55.668;37.858;2023-08-06T02:43:38;20.90;;;14.13;;
34673;SDS011;20879;55.668;37.858;2023-08-06T02:46:13;24.42;;;14.18;;
34673;SDS011;20879;55.668;37.858;2023-08-06T02:48:47;20.27;;;14.48;;
34673;SDS011;20879;55.668;37.858;2023-08-06T02:51:19;25.48;;;13.13;;
34673;SDS011;20879;55.668;37.858;2023-08-06T02:53:52;21.17;;;12.52;;
34673;SDS011;20879;55.668;37.858;2023-08-06T02:56:32;20.35;;;12.85;;
34673;SDS011;20879;55.668;37.858;2023-08-06T02:59:11;21.67;;;12.93;;
34673;SDS011;20879;55.668;37.858;2023-08-06T03:02:00;26.80;;;12.85;;
34673;SDS011;20879;55.668;37.858;2023-08-06T03:04:39;25.10;;;13.15;;
34673;SDS011;20879;55.668;37.858;2023-08-06T03:07:23;21.48;;;12.68;;
34673;SDS011;20879;55.668;37.858;2023-08-06T03:10:00;21.20;;;13.05;;
34673;SDS011;20879;55.668;37.858;2023-08-06T03:12:30;20.10;;;13.05;;
34673;SDS011;20879;55.668;37.858;2023-08-06T03:15:05;22.95;;;12.52;;
34673;SDS011;20879;55.668;37.858;2023-08-06T03:17:36;19.70;;;12.35;;
34673;SDS011;20879;55.668;37.858;2023-08-06T03:20:10;18.48;;;12.10;;
34673;SDS011;20879;55.668;37.858;2023-08-06T03:22:40;19.95;;;11.98;;
34673;SDS011;20879;55.668;37.858;2023-08-06T03:25:12;20.75;;;12.15;;
34673;SDS011;20879;55.668;37.858;2023-08-06T03:27:46;21.35;;;11.55;;
34673;SDS011;20879;55.668;37.858;2023-08-06T03:30:19;18.23;;;10.73;;
34673;SDS011;20879;55.668;37.858;2023-08-06T03:32:52;20.90;;;11.13;;
34673;SDS011;20879;55.668;37.858;2023-08-06T03:35:21;18.63;;;10.40;;
34673;SDS011;20879;55.668;37.858;2023-08-06T03:37:57;15.45;;;9.85;;
34673;SDS011;20879;55.668;37.858;2023-08-06T03:40:29;14.85;;;10.25;;
34673;SDS011;20879;55.668;37.858;2023-08-06T03:42:59;18.65;;;10.15;;
34673;SDS011;20879;55.668;37.858;2023-08-06T03:45:29;18.13;;;10.23;;
34673;SDS011;20879;55.668;37.858;2023-08-06T03:48:00;18.50;;;9.55;;
34673;SDS011;20879;55.668;37.858;2023-08-06T03:53:00;16.92;;;9.93;;
34673;SDS011;20879;55.668;37.858;2023-08-06T03:55:34;20.30;;;9.52;;
34673;SDS011;20879;55.668;37.858;2023-08-06T03:58:11;19.40;;;10.27;;
34673;SDS011;20879;55.668;37.858;2023-08-06T04:00:42;18.70;;;9.63;;
34673;SDS011;20879;55.668;37.858;2023-08-06T04:03:14;19.40;;;9.57;;
34673;SDS011;20879;55.668;37.858;2023-08-06T04:05:44;19.83;;;9.85;;
34673;SDS011;20879;55.668;37.858;2023-08-06T04:08:13;23.50;;;10.02;;
34673;SDS011;20879;55.668;37.858;2023-08-06T04:10:45;18.70;;;10.05;;
34673;SDS011;20879;55.668;37.858;2023-08-06T04:13:21;20.63;;;10.50;;
34673;SDS011;20879;55.668;37.858;2023-08-06T04:16:01;18.27;;;10.18;;
34673;SDS011;20879;55.668;37.858;2023-08-06T04:18:38;18.67;;;10.07;;
34673;SDS011;20879;55.668;37.858;2023-08-06T04:21:08;18.00;;;9.60;;
34673;SDS011;20879;55.668;37.858;2023-08-06T04:23:39;21.45;;;10.18;;
34673;SDS011;20879;55.668;37.858;2023-08-06T04:26:14;20.02;;;10.15;;
34673;SDS011;20879;55.668;37.858;2023-08-06T04:28:44;18.08;;;10.48;;
34673;SDS011;20879;55.668;37.858;2023-08-06T04:31:22;19.17;;;10.55;;
34673;SDS011;20879;55.668;37.858;2023-08-06T04:33:55;20.83;;;10.27;;
34673;SDS011;20879;55.668;37.858;2023-08-06T04:36:25;24.92;;;10.80;;
34673;SDS011;20879;55.668;37.858;2023-08-06T04:38:56;19.75;;;10.52;;
34673;SDS011;20879;55.668;37.858;2023-08-06T04:41:33;19.48;;;10.52;;
34673;SDS011;20879;55.668;37.858;2023-08-06T04:44:09;22.02;;;10.13;;
34673;SDS011;20879;55.668;37.858;2023-08-06T04:46:40;22.08;;;10.45;;
34673;SDS011;20879;55.668;37.858;2023-08-06T04:49:14;17.52;;;10.50;;
34673;SDS011;20879;55.668;37.858;2023-08-06T04:51:49;19.15;;;9.73;;
34673;SDS011;20879;55.668;37.858;2023-08-06T04:54:21;16.83;;;10.30;;
34673;SDS011;20879;55.668;37.858;2023-08-06T04:56:53;19.13;;;9.80;;
34673;SDS011;20879;55.668;37.858;2023-08-06T04:59:30;17.00;;;9.73;;
34673;SDS011;20879;55.668;37.858;2023-08-06T05:02:06;19.13;;;9.75;;
34673;SDS011;20879;55.668;37.858;2023-08-06T05:04:36;17.83;;;9.77;;
34673;SDS011;20879;55.668;37.858;2023-08-06T05:07:07;19.45;;;9.90;;
34673;SDS011;20879;55.668;37.858;2023-08-06T05:09:41;23.80;;;10.05;;
34673;SDS011;20879;55.668;37.858;2023-08-06T05:12:16;16.85;;;9.73;;
34673;SDS011;20879;55.668;37.858;2023-08-06T05:14:55;19.58;;;9.68;;
34673;SDS011;20879;55.668;37.858;2023-08-06T05:17:31;19.50;;;10.02;;
34673;SDS011;20879;55.668;37.858;2023-08-06T05:20:07;16.63;;;9.68;;
34673;SDS011;20879;55.668;37.858;2023-08-06T05:22:40;20.65;;;10.02;;
34673;SDS011;20879;55.668;37.858;2023-08-06T05:25:13;20.50;;;8.80;;
34673;SDS011;20879;55.668;37.858;2023-08-06T05:27:47;19.75;;;9.18;;
34673;SDS011;20879;55.668;37.858;2023-08-06T05:30:22;21.17;;;10.05;;
34673;SDS011;20879;55.668;37.858;2023-08-06T05:32:52;14.98;;;9.40;;
34673;SDS011;20879;55.668;37.858;2023-08-06T05:35:32;15.85;;;8.75;;
34673;SDS011;20879;55.668;37.858;2023-08-06T05:38:01;17.98;;;9.18;;
34673;SDS011;20879;55.668;37.858;2023-08-06T05:40:33;19.25;;;9.85;;
34673;SDS011;20879;55.668;37.858;2023-08-06T05:43:05;22.42;;;9.40;;
34673;SDS011;20879;55.668;37.858;2023-08-06T05:45:35;18.38;;;9.48;;
34673;SDS011;20879;55.668;37.858;2023-08-06T05:48:14;21.92;;;10.00;;
34673;SDS011;20879;55.668;37.858;2023-08-06T05:50:46;20.42;;;9.15;;
34673;SDS011;20879;55.668;37.858;2023-08-06T05:53:19;21.75;;;8.90;;
34673;SDS011;20879;55.668;37.858;2023-08-06T05:55:52;19.55;;;8.95;;
34673;SDS011;20879;55.668;37.858;2023-08-06T05:58:29;23.35;;;8.77;;
34673;SDS011;20879;55.668;37.858;2023-08-06T06:01:01;21.38;;;8.95;;
34673;SDS011;20879;55.668;37.858;2023-08-06T06:03:35;16.13;;;8.80;;
34673;SDS011;20879;55.668;37.858;2023-08-06T06:06:07;22.38;;;9.48;;
34673;SDS011;20879;55.668;37.858;2023-08-06T06:08:39;24.48;;;9.20;;
34673;SDS011;20879;55.668;37.858;2023-08-06T06:11:10;17.08;;;8.38;;
34673;SDS011;20879;55.668;37.858;2023-08-06T06:13:45;17.20;;;8.65;;
34673;SDS011;20879;55.668;37.858;2023-08-06T06:16:16;18.10;;;9.15;;
34673;SDS011;20879;55.668;37.858;2023-08-06T06:18:51;17.83;;;8.82;;
34673;SDS011;20879;55.668;37.858;2023-08-06T06:21:23;14.60;;;8.05;;
34673;SDS011;20879;55.668;37.858;2023-08-06T06:24:10;14.57;;;7.75;;
34673;SDS011;20879;55.668;37.858;2023-08-06T06:26:43;19.13;;;7.78;;
34673;SDS011;20879;55.668;37.858;2023-08-06T06:29:14;15.23;;;7.53;;
34673;SDS011;20879;55.668;37.858;2023-08-06T06:31:50;20.40;;;7.40;;
34673;SDS011;20879;55.668;37.858;2023-08-06T06:34:22;17.27;;;7.68;;
34673;SDS011;20879;55.668;37.858;2023-08-06T06:36:54;14.30;;;7.60;;
34673;SDS011;20879;55.668;37.858;2023-08-06T06:39:27;19.55;;;8.27;;
34673;SDS011;20879;55.668;37.858;2023-08-06T06:41:57;17.80;;;6.93;;
34673;SDS011;20879;55.668;37.858;2023-08-06T06:47:16;13.93;;;7.57;;
34673;SDS011;20879;55.668;37.858;2023-08-06T06:49:47;18.48;;;7.15;;
34673;SDS011;20879;55.668;37.858;2023-08-06T06:52:17;18.33;;;8.07;;
34673;SDS011;20879;55.668;37.858;2023-08-06T06:54:52;17.38;;;6.97;;
34673;SDS011;20879;55.668;37.858;2023-08-06T06:57:22;12.57;;;7.03;;
34673;SDS011;20879;55.668;37.858;2023-08-06T06:59:55;16.00;;;7.40;;
34673;SDS011;20879;55.668;37.858;2023-08-06T07:02:30;13.27;;;7.43;;
34673;SDS011;20879;55.668;37.858;2023-08-06T07:05:00;15.05;;;8.23;;
34673;SDS011;20879;55.668;37.858;2023-08-06T07:07:32;11.43;;;6.43;;
34673;SDS011;20879;55.668;37.858;2023-08-06T07:10:07;14.25;;;7.22;;
34673;SDS011;20879;55.668;37.858;2023-08-06T07:12:37;10.32;;;6.88;;
34673;SDS011;20879;55.668;37.858;2023-08-06T07:15:11;12.10;;;6.57;;
34673;SDS011;20879;55.668;37.858;2023-08-06T07:17:53;13.13;;;6.65;;
34673;SDS011;20879;55.668;37.858;2023-08-06T07:20:28;14.35;;;6.93;;
34673;SDS011;20879;55.668;37.858;2023-08-06T07:23:02;18.58;;;6.95;;
34673;SDS011;20879;55.668;37.858;2023-08-06T07:25:34;10.05;;;6.57;;
34673;SDS011;20879;55.668;37.858;2023-08-06T07:28:04;18.30;;;7.07;;
34673;SDS011;20879;55.668;37.858;2023-08-06T07:30:44;10.65;;;5.93;;
34673;SDS011;20879;55.668;37.858;2023-08-06T07:33:19;14.50;;;6.55;;
34673;SDS011;20879;55.668;37.858;2023-08-06T07:35:50;14.95;;;6.20;;
34673;SDS011;20879;55.668;37.858;2023-08-06T07:38:20;18.17;;;6.65;;
34673;SDS011;20879;55.668;37.858;2023-08-06T07:40:55;11.38;;;6.28;;
34673;SDS011;20879;55.668;37.858;2023-08-06T07:43:25;14.00;;;7.22;;
34673;SDS011;20879;55.668;37.858;2023-08-06T07:45:59;14.38;;;6.90;;
34673;SDS011;20879;55.668;37.858;2023-08-06T07:48:34;11.98;;;5.70;;
34673;SDS011;20879;55.668;37.858;2023-08-06T07:51:05;11.27;;;6.38;;
34673;SDS011;20879;55.668;37.858;2023-08-06T07:53:34;11.07;;;5.78;;
34673;SDS011;20879;55.668;37.858;2023-08-06T07:56:06;9.52;;;6.07;;
34673;SDS011;20879;55.668;37.858;2023-08-06T07:58:36;13.73;;;6.00;;
34673;SDS011;20879;55.668;37.858;2023-08-06T08:01:08;19.58;;;6.25;;
34673;SDS011;20879;55.668;37.858;2023-08-06T08:03:41;14.10;;;6.03;;
34673;SDS011;20879;55.668;37.858;2023-08-06T08:06:13;22.15;;;6.43;;
34673;SDS011;20879;55.668;37.858;2023-08-06T08:08:53;10.93;;;5.88;;
34673;SDS011;20879;55.668;37.858;2023-08-06T08:11:23;14.25;;;7.00;;
34673;SDS011;20879;55.668;37.858;2023-08-06T08:13:54;13.13;;;5.95;;
34673;SDS011;20879;55.668;37.858;2023-08-06T08:16:25;10.85;;;6.28;;
34673;SDS011;20879;55.668;37.858;2023-08-06T08:18:57;13.65;;;6.70;;
34673;SDS011;20879;55.668;37.858;2023-08-06T08:21:28;13.35;;;5.85;;
34673;SDS011;20879;55.668;37.858;2023-08-06T08:23:59;21.52;;;6.85;;
34673;SDS011;20879;55.668;37.858;2023-08-06T08:26:34;10.75;;;5.90;;
34673;SDS011;20879;55.668;37.858;2023-08-06T08:29:05;11.02;;;5.63;;
34673;SDS011;20879;55.668;37.858;2023-08-06T08:31:36;13.35;;;6.10;;
34673;SDS011;20879;55.668;37.858;2023-08-06T08:34:06;13.50;;;6.15;;
34673;SDS011;20879;55.668;37.858;2023-08-06T08:36:42;11.55;;;6.20;;
34673;SDS011;20879;55.668;37.858;2023-08-06T08:39:16;14.35;;;6.40;;
34673;SDS011;20879;55.668;37.858;2023-08-06T08:41:45;14.10;;;6.10;;
34673;SDS011;20879;55.668;37.858;2023-08-06T08:44:15;11.07;;;7.55;;
34673;SDS011;20879;55.668;37.858;2023-08-06T08:46:53;10.25;;;5.93;;
34673;SDS011;20879;55.668;37.858;2023-08-06T08:49:23;13.95;;;6.15;;
34673;SDS011;20879;55.668;37.858;2023-08-06T08:51:53;13.43;;;6.67;;
34673;SDS011;20879;55.668;37.858;2023-08-06T08:56:53;12.27;;;5.93;;
34673;SDS011;20879;55.668;37.858;2023-08-06T08:59:30;10.80;;;5.57;;
34673;SDS011;20879;55.668;37.858;2023-08-06T09:02:12;9.23;;;6.18;;
34673;SDS011;20879;55.668;37.858;2023-08-06T09:04:47;10.15;;;6.05;;
34673;SDS011;20879;55.668;37.858;2023-08-06T09:07:18;12.85;;;6.20;;
34673;SDS011;20879;55.668;37.858;2023-08-06T09:09:59;7.63;;;5.78;;
34673;SDS011;20879;55.668;37.858;2023-08-06T09:12:38;9.80;;;5.15;;
34673;SDS011;20879;55.668;37.858;2023-08-06T09:15:08;11.50;;;5.70;;
34673;SDS011;20879;55.668;37.858;2023-08-06T09:17:45;10.20;;;5.95;;
34673;SDS011;20879;55.668;37.858;2023-08-06T09:20:19;12.25;;;5.75;;
34673;SDS011;20879;55.668;37.858;2023-08-06T09:22:50;14.17;;;5.80;;
34673;SDS011;20879;55.668;37.858;2023-08-06T09:25:22;9.07;;;5.70;;
34673;SDS011;20879;55.668;37.858;2023-08-06T09:27:55;10.43;;;5.85;;
34673;SDS011;20879;55.668;37.858;2023-08-06T09:30:31;10.43;;;5.50;;
34673;SDS011;20879;55.668;37.858;2023-08-06T09:33:10;11.40;;;5.50;;
34673;SDS011;20879;55.668;37.858;2023-08-06T09:35:42;11.25;;;5.57;;
34673;SDS011;20879;55.668;37.858;2023-08-06T09:38:11;15.13;;;5.35;;
34673;SDS011;20879;55.668;37.858;2023-08-06T09:40:48;9.27;;;5.65;;
34673;SDS011;20879;55.668;37.858;2023-08-06T09:43:18;13.70;;;5.35;;
34673;SDS011;20879;55.668;37.858;2023-08-06T09:45:48;11.77;;;5.70;;
34673;SDS011;20879;55.668;37.858;2023-08-06T09:48:20;8.02;;;5.47;;
34673;SDS011;20879;55.668;37.858;2023-08-06T09:50:56;9.00;;;5.38;;
34673;SDS011;20879;55.668;37.858;2023-08-06T09:53:25;11.25;;;5.70;;
34673;SDS011;20879;55.668;37.858;2023-08-06T09:55:56;6.27;;;5.57;;
34673;SDS011;20879;55.668;37.858;2023-08-06T09:58:26;10.10;;;4.72;;
34673;SDS011;20879;55.668;37.858;2023-08-06T10:00:56;7.83;;;5.53;;
34673;SDS011;20879;55.668;37.858;2023-08-06T10:03:33;8.38;;;5.15;;
34673;SDS011;20879;55.668;37.858;2023-08-06T10:06:03;6.95;;;4.75;;
34673;SDS011;20879;55.668;37.858;2023-08-06T10:08:35;7.90;;;4.93;;
34673;SDS011;20879;55.668;37.858;2023-08-06T10:11:12;9.48;;;5.00;;
34673;SDS011;20879;55.668;37.858;2023-08-06T10:16:19;9.15;;;5.03;;
34673;SDS011;20879;55.668;37.858;2023-08-06T10:18:53;8.48;;;5.25;;
34673;SDS011;20879;55.668;37.858;2023-08-06T10:21:23;7.55;;;5.65;;
34673;SDS011;20879;55.668;37.858;2023-08-06T10:23:54;12.35;;;5.95;;
34673;SDS011;20879;55.668;37.858;2023-08-06T10:26:27;12.00;;;5.40;;
34673;SDS011;20879;55.668;37.858;2023-08-06T10:28:59;8.93;;;5.45;;
34673;SDS011;20879;55.668;37.858;2023-08-06T10:34:41;6.93;;;5.20;;
34673;SDS011;20879;55.668;37.858;2023-08-06T10:37:23;11.30;;;6.00;;
34673;SDS011;20879;55.668;37.858;2023-08-06T10:39:53;7.97;;;5.78;;
34673;SDS011;20879;55.668;37.858;2023-08-06T10:42:27;7.00;;;5.03;;
34673;SDS011;20879;55.668;37.858;2023-08-06T10:47:47;11.40;;;6.07;;
34673;SDS011;20879;55.668;37.858;2023-08-06T10:50:20;8.40;;;5.17;;
34673;SDS011;20879;55.668;37.858;2023-08-06T10:52:51;12.23;;;5.00;;
34673;SDS011;20879;55.668;37.858;2023-08-06T10:55:24;8.77;;;5.45;;
34673;SDS011;20879;55.668;37.858;2023-08-06T10:58:02;9.77;;;5.35;;
34673;SDS011;20879;55.668;37.858;2023-08-06T11:00:31;8.57;;;5.63;;
34673;SDS011;20879;55.668;37.858;2023-08-06T11:03:02;11.68;;;5.05;;
34673;SDS011;20879;55.668;37.858;2023-08-06T11:05:40;8.82;;;5.03;;
34673;SDS011;20879;55.668;37.858;2023-08-06T11:08:10;7.88;;;5.15;;
34673;SDS011;20879;55.668;37.858;2023-08-06T11:10:39;9.85;;;5.65;;
34673;SDS011;20879;55.668;37.858;2023-08-06T11:13:28;9.75;;;5.07;;
34673;SDS011;20879;55.668;37.858;2023-08-06T11:15:58;7.95;;;5.22;;
34673;SDS011;20879;55.668;37.858;2023-08-06T11:18:28;15.25;;;5.30;;
34673;SDS011;20879;55.668;37.858;2023-08-06T11:21:00;9.48;;;5.05;;
34673;SDS011;20879;55.668;37.858;2023-08-06T11:23:31;11.68;;;5.60;;
34673;SDS011;20879;55.668;37.858;2023-08-06T11:26:02;7.30;;;4.82;;
34673;SDS011;20879;55.668;37.858;2023-08-06T11:28:32;10.80;;;5.68;;
34673;SDS011;20879;55.668;37.858;2023-08-06T11:31:02;12.70;;;5.88;;
34673;SDS011;20879;55.668;37.858;2023-08-06T11:33:31;13.68;;;5.75;;
34673;SDS011;20879;55.668;37.858;2023-08-06T11:36:03;9.10;;;5.60;;
34673;SDS011;20879;55.668;37.858;2023-08-06T11:38:34;8.68;;;5.45;;
34673;SDS011;20879;55.668;37.858;2023-08-06T11:41:04;10.43;;;5.60;;
34673;SDS011;20879;55.668;37.858;2023-08-06T11:43:35;10.57;;;5.10;;
34673;SDS011;20879;55.668;37.858;2023-08-06T11:46:05;8.77;;;5.85;;
34673;SDS011;20879;55.668;37.858;2023-08-06T11:48:50;11.18;;;5.50;;
34673;SDS011;20879;55.668;37.858;2023-08-06T11:51:25;6.55;;;5.03;;
34673;SDS011;20879;55.668;37.858;2023-08-06T11:53:59;9.68;;;5.50;;
34673;SDS011;20879;55.668;37.858;2023-08-06T11:56:35;6.45;;;4.97;;
34673;SDS011;20879;55.668;37.858;2023-08-06T11:59:05;8.32;;;5.57;;
34673;SDS011;20879;55.668;37.858;2023-08-06T12:01:38;11.73;;;5.10;;
34673;SDS011;20879;55.668;37.858;2023-08-06T12:04:12;11.90;;;5.80;;
34673;SDS011;20879;55.668;37.858;2023-08-06T12:06:44;10.67;;;5.07;;
34673;SDS011;20879;55.668;37.858;2023-08-06T12:09:16;8.20;;;5.40;;
34673;SDS011;20879;55.668;37.858;2023-08-06T12:11:51;14.50;;;5.70;;
34673;SDS011;20879;55.668;37.858;2023-08-06T12:14:21;8.77;;;5.13;;
34673;SDS011;20879;55.668;37.858;2023-08-06T12:16:50;7.97;;;4.97;;
34673;SDS011;20879;55.668;37.858;2023-08-06T12:19:19;15.38;;;9.40;;
34673;SDS011;20879;55.668;37.858;2023-08-06T12:21:54;6.78;;;5.28;;
34673;SDS011;20879;55.668;37.858;2023-08-06T12:24:24;8.60;;;4.93;;
34673;SDS011;20879;55.668;37.858;2023-08-06T12:26:53;8.07;;;4.75;;
34673;SDS011;20879;55.668;37.858;2023-08-06T12:29:24;7.95;;;5.43;;
34673;SDS011;20879;55.668;37.858;2023-08-06T12:31:56;6.93;;;5.07;;
34673;SDS011;20879;55.668;37.858;2023-08-06T12:34:31;6.30;;;5.20;;
34673;SDS011;20879;55.668;37.858;2023-08-06T12:37:20;7.50;;;5.38;;
34673;SDS011;20879;55.668;37.858;2023-08-06T12:39:50;7.35;;;4.82;;
34673;SDS011;20879;55.668;37.858;2023-08-06T12:42:19;8.13;;;4.72;;
34673;SDS011;20879;55.668;37.858;2023-08-06T12:49:53;8.15;;;5.28;;
34673;SDS011;20879;55.668;37.858;2023-08-06T12:52:24;10.88;;;5.30;;
34673;SDS011;20879;55.668;37.858;2023-08-06T12:54:56;9.60;;;5.20;;
34673;SDS011;20879;55.668;37.858;2023-08-06T12:57:26;8.25;;;5.18;;
34673;SDS011;20879;55.668;37.858;2023-08-06T13:00:16;10.38;;;5.25;;
34673;SDS011;20879;55.668;37.858;2023-08-06T13:02:46;10.93;;;5.47;;
34673;SDS011;20879;55.668;37.858;2023-08-06T13:05:21;11.30;;;5.25;;
34673;SDS011;20879;55.668;37.858;2023-08-06T13:07:53;8.07;;;5.47;;
34673;SDS011;20879;55.668;37.858;2023-08-06T13:10:23;16.88;;;5.90;;
34673;SDS011;20879;55.668;37.858;2023-08-06T13:12:59;10.45;;;6.18;;
34673;SDS011;20879;55.668;37.858;2023-08-06T13:15:28;8.65;;;5.70;;
34673;SDS011;20879;55.668;37.858;2023-08-06T13:17:58;9.20;;;5.43;;
34673;SDS011;20879;55.668;37.858;2023-08-06T13:20:38;13.77;;;5.88;;
34673;SDS011;20879;55.668;37.858;2023-08-06T13:23:08;9.98;;;5.35;;
34673;SDS011;20879;55.668;37.858;2023-08-06T13:25:40;8.25;;;5.57;;
34673;SDS011;20879;55.668;37.858;2023-08-06T13:28:10;11.30;;;5.75;;
34673;SDS011;20879;55.668;37.858;2023-08-06T13:30:40;12.45;;;6.40;;
34673;SDS011;20879;55.668;37.858;2023-08-06T13:33:16;10.65;;;5.85;;
34673;SDS011;20879;55.668;37.858;2023-08-06T13:35:48;9.40;;;5.90;;
34673;SDS011;20879;55.668;37.858;2023-08-06T13:38:19;11.88;;;5.85;;
34673;SDS011;20879;55.668;37.858;2023-08-06T13:40:50;9.90;;;5.82;;
34673;SDS011;20879;55.668;37.858;2023-08-06T13:43:29;11.38;;;5.63;;
34673;SDS011;20879;55.668;37.858;2023-08-06T13:45:58;15.15;;;5.93;;
34673;SDS011;20879;55.668;37.858;2023-08-06T13:48:27;9.85;;;6.03;;
34673;SDS011;20879;55.668;37.858;2023-08-06T13:51:00;9.60;;;5.35;;
34673;SDS011;20879;55.668;37.858;2023-08-06T13:53:30;9.27;;;5.65;;
34673;SDS011;20879;55.668;37.858;2023-08-06T13:55:59;11.57;;;5.95;;
34673;SDS011;20879;55.668;37.858;2023-08-06T13:58:29;11.55;;;6.60;;
34673;SDS011;20879;55.668;37.858;2023-08-06T14:00:59;7.60;;;5.97;;
34673;SDS011;20879;55.668;37.858;2023-08-06T14:03:30;8.88;;;5.78;;
34673;SDS011;20879;55.668;37.858;2023-08-06T14:06:07;11.10;;;5.47;;
34673;SDS011;20879;55.668;37.858;2023-08-06T14:08:40;8.27;;;5.63;;
34673;SDS011;20879;55.668;37.858;2023-08-06T14:11:15;11.23;;;5.65;;
34673;SDS011;20879;55.668;37.858;2023-08-06T14:13:44;11.57;;;5.55;;
34673;SDS011;20879;55.668;37.858;2023-08-06T14:16:14;12.30;;;6.05;;
34673;SDS011;20879;55.668;37.858;2023-08-06T14:18:44;7.67;;;6.03;;
34673;SDS011;20879;55.668;37.858;2023-08-06T14:21:17;10.50;;;6.10;;
34673;SDS011;20879;55.668;37.858;2023-08-06T14:23:47;11.77;;;5.80;;
34673;SDS011;20879;55.668;37.858;2023-08-06T14:26:19;9.95;;;5.85;;
34673;SDS011;20879;55.668;37.858;2023-08-06T14:28:54;12.73;;;5.95;;
34673;SDS011;20879;55.668;37.858;2023-08-06T14:31:23;13.88;;;5.75;;
34673;SDS011;20879;55.668;37.858;2023-08-06T14:33:54;16.83;;;5.80;;
34673;SDS011;20879;55.668;37.858;2023-08-06T14:36:25;14.77;;;6.20;;
34673;SDS011;20879;55.668;37.858;2023-08-06T14:38:57;10.35;;;6.60;;
34673;SDS011;20879;55.668;37.858;2023-08-06T14:41:27;8.68;;;5.47;;
34673;SDS011;20879;55.668;37.858;2023-08-06T14:43:57;12.73;;;6.03;;
34673;SDS011;20879;55.668;37.858;2023-08-06T14:46:26;11.32;;;5.95;;
34673;SDS011;20879;55.668;37.858;2023-08-06T14:48:56;9.07;;;6.10;;
34673;SDS011;20879;55.668;37.858;2023-08-06T14:51:30;9.75;;;5.80;;
34673;SDS011;20879;55.668;37.858;2023-08-06T14:54:06;9.40;;;5.95;;
34673;SDS011;20879;55.668;37.858;2023-08-06T14:56:36;12.45;;;5.50;;
34673;SDS011;20879;55.668;37.858;2023-08-06T14:59:07;7.88;;;5.32;;
34673;SDS011;20879;55.668;37.858;2023-08-06T15:01:36;10.32;;;5.55;;
34673;SDS011;20879;55.668;37.858;2023-08-06T15:04:06;11.88;;;6.15;;
34673;SDS011;20879;55.668;37.858;2023-08-06T15:06:38;7.28;;;5.55;;
34673;SDS011;20879;55.668;37.858;2023-08-06T15:09:08;10.02;;;5.80;;
34673;SDS011;20879;55.668;37.858;2023-08-06T15:11:38;12.45;;;5.68;;
34673;SDS011;20879;55.668;37.858;2023-08-06T15:14:08;8.43;;;5.55;;
34673;SDS011;20879;55.668;37.858;2023-08-06T15:16:41;10.60;;;5.70;;
34673;SDS011;20879;55.668;37.858;2023-08-06T15:19:11;6.47;;;5.22;;
34673;SDS011;20879;55.668;37.858;2023-08-06T15:21:43;8.88;;;5.13;;
34673;SDS011;20879;55.668;37.858;2023-08-06T15:24:13;6.10;;;5.22;;